createdAt,value
2023-05-17T00:02:01.297Z,12.30
2023-05-17T00:07:03.364Z,12.34
2023-05-17T00:12:05.316Z,12.15
2023-05-17T00:17:06.758Z,12.17
2023-05-17T00:22:08.375Z,12.09
2023-05-17T00:27:10.196Z,12.21
2023-05-17T00:32:11.712Z,12.04
2023-05-17T00:37:13.193Z,12.06
2023-05-17T00:42:14.811Z,11.93
2023-05-17T00:47:16.292Z,12.01
2023-05-17T00:52:17.853Z,11.75
2023-05-17T00:57:19.369Z,11.89
2023-05-17T01:02:20.847Z,11.92
2023-05-17T01:07:22.336Z,11.76
2023-05-17T01:12:39.076Z,11.77
2023-05-17T01:18:11.802Z,11.82
2023-05-17T01:23:42.152Z,11.66
2023-05-17T01:28:53.848Z,11.57
2023-05-17T01:33:58.017Z,11.42
2023-05-17T01:39:00.543Z,11.47
2023-05-17T01:44:11.056Z,11.79
2023-05-17T01:49:21.720Z,11.51
2023-05-17T01:54:38.185Z,11.45
2023-05-17T01:59:41.988Z,11.61
2023-05-17T02:04:43.546Z,11.65
2023-05-17T02:09:45.402Z,11.74
2023-05-17T02:14:46.961Z,11.55
2023-05-17T02:19:48.443Z,11.32
2023-05-17T02:24:49.938Z,11.44
2023-05-17T02:29:51.416Z,11.47
2023-05-17T02:34:52.881Z,11.26
2023-05-17T02:39:54.380Z,11.47
2023-05-17T02:44:57.928Z,11.52
2023-05-17T02:49:59.428Z,11.55
2023-05-17T02:55:01.019Z,11.48
2023-05-17T03:00:03.407Z,11.39
2023-05-17T03:05:05.142Z,11.31
2023-05-17T03:10:07.460Z,11.35
2023-05-17T03:15:09.193Z,11.36
2023-05-17T03:20:10.978Z,11.13
2023-05-17T03:25:12.482Z,11.33
2023-05-17T03:30:14.207Z,11.44
2023-05-17T03:35:15.792Z,11.17
2023-05-17T03:40:17.330Z,11.24
2023-05-17T03:45:18.851Z,10.99
2023-05-17T03:50:20.601Z,11.07
2023-05-17T03:55:22.257Z,11.00
2023-05-17T04:00:24.635Z,11.18
2023-05-17T04:05:26.873Z,10.96
2023-05-17T04:10:28.677Z,10.87
2023-05-17T04:15:30.315Z,11.13
2023-05-17T04:20:31.895Z,11.02
2023-05-17T04:25:33.374Z,11.05
2023-05-17T04:30:34.866Z,11.02
2023-05-17T04:35:38.529Z,11.36
2023-05-17T04:40:40.786Z,11.21
2023-05-17T04:45:42.254Z,11.11
2023-05-17T04:50:46.296Z,11.02
2023-05-17T04:55:50.802Z,10.94
2023-05-17T05:00:52.863Z,11.09
2023-05-17T05:05:54.371Z,11.37
2023-05-17T05:10:55.957Z,11.21
2023-05-17T05:15:57.465Z,11.19
2023-05-17T05:20:59.341Z,11.35
2023-05-17T05:26:00.943Z,11.64
2023-05-17T05:31:02.483Z,11.85
2023-05-17T05:36:04.269Z,11.93
2023-05-17T05:41:05.771Z,11.89
2023-05-17T05:46:08.053Z,11.71
2023-05-17T05:51:09.679Z,11.60
2023-05-17T05:56:11.187Z,11.92
2023-05-17T06:01:12.943Z,12.01
2023-05-17T06:06:16.680Z,12.24
2023-05-17T06:11:18.785Z,12.05
2023-05-17T06:16:20.240Z,12.22
2023-05-17T06:21:22.026Z,12.04
2023-05-17T06:26:23.856Z,12.12
2023-05-17T06:31:25.385Z,12.18
2023-05-17T06:36:26.933Z,12.19
2023-05-17T06:41:28.518Z,12.29
2023-05-17T06:46:29.994Z,12.06
2023-05-17T06:51:31.588Z,12.34
2023-05-17T06:56:33.036Z,12.39
2023-05-17T07:01:34.736Z,12.21
2023-05-17T07:06:36.241Z,12.51
2023-05-17T07:11:37.776Z,12.39
2023-05-17T07:16:39.302Z,12.46
2023-05-17T07:21:41.713Z,12.44
2023-05-17T07:26:43.230Z,12.49
2023-05-17T07:31:44.701Z,12.39
2023-05-17T07:36:46.147Z,12.36
2023-05-17T07:41:47.683Z,11.95
2023-05-17T07:46:49.343Z,12.13
2023-05-17T07:51:51.299Z,12.30
2023-05-17T07:56:57.170Z,12.32
2023-05-17T08:01:58.616Z,12.67
2023-05-17T08:07:00.982Z,12.56
2023-05-17T08:12:02.600Z,12.80
2023-05-17T08:17:04.416Z,12.81
2023-05-17T08:22:05.905Z,13.04
2023-05-17T08:27:07.403Z,12.95
2023-05-17T08:32:08.901Z,13.07
2023-05-17T08:37:10.453Z,12.94
2023-05-17T08:42:12.953Z,12.85
2023-05-17T08:47:25.965Z,13.04
2023-05-17T08:52:32.266Z,12.71
2023-05-17T08:57:37.672Z,12.71
2023-05-17T09:02:40.462Z,12.84
2023-05-17T09:07:42.918Z,12.84
2023-05-17T09:12:44.939Z,13.17
2023-05-17T09:17:56.917Z,13.17
2023-05-17T09:22:59.337Z,13.46
2023-05-17T09:28:02.369Z,13.37
2023-05-17T09:33:12.382Z,13.23
2023-05-17T09:38:16.116Z,13.03
2023-05-17T09:43:24.262Z,12.81
2023-05-17T09:48:30.163Z,12.95
2023-05-17T09:53:33.351Z,12.84
2023-05-17T09:58:37.395Z,13.47
2023-05-17T10:03:39.221Z,13.23
2023-05-17T10:08:46.282Z,13.51
2023-05-17T10:14:07.714Z,13.68
2023-05-17T10:19:11.561Z,13.39
2023-05-17T10:24:13.838Z,13.48
2023-05-17T10:29:16.970Z,13.62
2023-05-17T10:34:19.916Z,13.52
2023-05-17T10:39:22.196Z,13.62
2023-05-17T10:44:24.742Z,13.36
2023-05-17T10:49:34.052Z,13.41
2023-05-17T10:54:36.927Z,13.69
2023-05-17T10:59:56.724Z,13.80
2023-05-17T11:05:00.505Z,13.71
2023-05-17T11:10:07.984Z,13.41
2023-05-17T11:15:14.220Z,13.73
2023-05-17T11:20:16.767Z,13.77
2023-05-17T11:25:19.359Z,13.80
2023-05-17T11:30:28.874Z,13.51
2023-05-17T11:35:35.334Z,13.98
2023-05-17T11:40:37.334Z,13.86
2023-05-17T11:46:06.808Z,13.84
2023-05-17T11:51:08.350Z,13.70
2023-05-17T11:56:11.477Z,14.00
2023-05-17T12:01:13.027Z,13.87
2023-05-17T12:06:17.470Z,13.86
2023-05-17T12:11:19.238Z,13.86
2023-05-17T12:16:24.558Z,14.13
2023-05-17T12:21:26.123Z,14.12
2023-05-17T12:26:27.588Z,14.01
2023-05-17T12:31:38.393Z,14.02
2023-05-17T12:36:40.577Z,14.21
2023-05-17T12:41:43.100Z,13.87
2023-05-17T12:46:45.181Z,13.82
2023-05-17T12:51:47.390Z,13.54
2023-05-17T12:56:48.899Z,13.59
2023-05-17T13:01:55.824Z,13.73
2023-05-17T13:07:02.255Z,14.00
2023-05-17T13:12:07.763Z,14.20
2023-05-17T13:17:11.157Z,14.07
2023-05-17T13:22:12.663Z,13.88
2023-05-17T13:27:14.462Z,13.88
2023-05-17T13:32:15.993Z,14.00
2023-05-17T13:37:17.583Z,13.98
2023-05-17T13:42:19.076Z,14.20
2023-05-17T13:47:20.736Z,14.27
2023-05-17T13:52:23.167Z,14.14
2023-05-17T13:57:24.672Z,14.00
2023-05-17T14:02:26.539Z,13.99
2023-05-17T14:07:28.624Z,13.92
2023-05-17T14:12:30.106Z,14.13
2023-05-17T14:17:33.166Z,14.23
2023-05-17T14:22:34.695Z,14.36
2023-05-17T14:27:36.156Z,14.28
2023-05-17T14:32:39.117Z,14.36
2023-05-17T14:37:40.726Z,14.23
2023-05-17T14:42:43.236Z,14.35
2023-05-17T14:47:45.071Z,14.34
2023-05-17T14:52:46.627Z,14.30
2023-05-17T14:57:48.106Z,14.41
2023-05-17T15:02:50.245Z,14.29
2023-05-17T15:07:52.650Z,14.34
2023-05-17T15:12:54.098Z,14.34
2023-05-17T15:17:55.651Z,14.44
2023-05-17T15:22:57.138Z,14.39
2023-05-17T15:27:58.814Z,14.45
2023-05-17T15:33:01.366Z,14.35
2023-05-17T15:38:07.368Z,14.69
2023-05-17T15:43:08.834Z,14.41
2023-05-17T15:48:11.419Z,14.45
2023-05-17T15:53:13.154Z,14.44
2023-05-17T15:58:14.732Z,14.41
2023-05-17T16:03:16.387Z,14.34
2023-05-17T16:08:17.818Z,14.20
2023-05-17T16:13:19.308Z,14.18
2023-05-17T16:18:20.983Z,14.03
2023-05-17T16:23:22.515Z,14.09
2023-05-17T16:28:24.298Z,14.13
2023-05-17T16:33:26.631Z,14.13
2023-05-17T16:38:28.361Z,14.19
2023-05-17T16:43:30.958Z,14.03
2023-05-17T16:48:32.447Z,14.04
2023-05-17T16:53:33.909Z,14.02
2023-05-17T16:58:35.397Z,14.02
2023-05-17T17:03:36.955Z,13.96
2023-05-17T17:08:38.722Z,13.99
2023-05-17T17:13:40.503Z,13.94
2023-05-17T17:18:42.026Z,13.82
2023-05-17T17:23:44.467Z,13.87
2023-05-17T17:28:46.021Z,13.90
2023-05-17T17:33:47.477Z,13.87
2023-05-17T17:38:48.940Z,13.75
2023-05-17T17:43:50.394Z,13.62
2023-05-17T17:48:52.370Z,13.58
2023-05-17T17:53:55.445Z,13.69
2023-05-17T17:58:57.168Z,13.49
2023-05-17T18:03:59.133Z,13.57
2023-05-17T18:09:00.629Z,13.47
2023-05-17T18:14:06.190Z,13.52
2023-05-17T18:19:07.761Z,13.48
2023-05-17T18:24:09.397Z,13.42
2023-05-17T18:29:10.969Z,13.35
2023-05-17T18:34:12.432Z,13.32
2023-05-17T18:39:13.913Z,13.31
2023-05-17T18:44:16.200Z,13.33
2023-05-17T18:49:18.404Z,13.29
2023-05-17T18:54:19.865Z,13.27
2023-05-17T18:59:21.330Z,13.16
2023-05-17T19:04:22.868Z,13.08
2023-05-17T19:09:24.341Z,12.97
2023-05-17T19:14:25.878Z,12.95
2023-05-17T19:19:27.418Z,12.93
2023-05-17T19:24:28.917Z,13.02
2023-05-17T19:29:32.613Z,12.94
2023-05-17T19:34:34.140Z,12.87
2023-05-17T19:39:36.351Z,12.92
2023-05-17T19:44:38.364Z,13.00
2023-05-17T19:49:39.902Z,12.97
2023-05-17T19:54:41.404Z,13.04
2023-05-17T19:59:42.880Z,13.01
2023-05-17T20:04:44.345Z,13.02
2023-05-17T20:09:45.874Z,13.05
2023-05-17T20:14:47.445Z,12.99
2023-05-17T20:19:48.900Z,13.07
2023-05-17T20:24:50.655Z,12.99
2023-05-17T20:29:52.139Z,12.98
2023-05-17T20:34:53.668Z,12.86
2023-05-17T20:39:59.903Z,12.87
2023-05-17T20:45:01.412Z,12.86
2023-05-17T20:50:04.047Z,12.82
2023-05-17T20:55:10.336Z,12.79
2023-05-17T21:00:12.208Z,12.75
2023-05-17T21:05:13.794Z,12.52
2023-05-17T21:10:15.361Z,12.54
2023-05-17T21:15:19.699Z,12.35
2023-05-17T21:20:22.302Z,12.31
2023-05-17T21:25:26.057Z,12.30
2023-05-17T21:30:27.606Z,12.25
2023-05-17T21:35:29.225Z,12.34
2023-05-17T21:40:31.178Z,12.37
2023-05-17T21:45:33.849Z,12.39
2023-05-17T21:50:35.307Z,12.36
2023-05-17T21:55:51.291Z,12.35
2023-05-17T22:00:58.514Z,12.27
2023-05-17T22:06:01.416Z,12.36
2023-05-17T22:11:03.757Z,12.24
2023-05-17T22:16:06.168Z,12.18
2023-05-17T22:21:08.794Z,12.16
2023-05-17T22:26:10.602Z,12.23
2023-05-17T22:31:14.611Z,12.11
2023-05-17T22:36:17.845Z,12.06
2023-05-17T22:41:19.318Z,12.01
2023-05-17T22:46:20.882Z,11.96
2023-05-17T22:51:22.532Z,11.99
2023-05-17T22:56:24.425Z,11.93
2023-05-17T23:01:26.081Z,11.90
2023-05-17T23:06:27.642Z,11.84
2023-05-17T23:11:29.834Z,11.76
2023-05-17T23:16:31.385Z,11.67
2023-05-17T23:21:33.247Z,11.59
2023-05-17T23:26:35.152Z,11.65
2023-05-17T23:31:37.592Z,11.66
2023-05-17T23:36:39.345Z,11.68
2023-05-17T23:41:41.035Z,11.53
2023-05-17T23:46:44.596Z,11.47
2023-05-17T23:51:46.538Z,11.46
2023-05-17T23:56:48.117Z,11.43
